VLG14DD LEBL-LEAL
Flight info
| Callsign | VLG14DD |
|---|---|
| Flight time | N/A |
| Altitude | 29000 |
| Route | LOTOS M985 VLC |
| Aircraft | A320/M-SDE3FGHIRWY/LB1 |
Departure
| Time | 2026-05-03 21:32 |
|---|---|
| Airport | Josep Tarradellas Barcelona-El Prat Airport (LEBL) |
Arrival
| Time | N/A |
|---|---|
| Airport | Alicante-Elche Miguel Hernández Airport (LEAL) |
| Time | Latitude | Longitude | Altitude | Speed | Heading |
|---|---|---|---|---|---|
| 2026-05-03 21:19 | 41.29241 | 2.08220 | 19 ft | 0 kts | 201° |
| 2026-05-03 21:23 | 41.29248 | 2.08223 | 19 ft | 4 kts | 202° |
| 2026-05-03 21:24 | 41.29273 | 2.08237 | 23 ft | 4 kts | 203° |
| 2026-05-03 21:24 | 41.29297 | 2.08251 | 21 ft | 4 kts | 203° |
| 2026-05-03 21:24 | 41.29319 | 2.08263 | 22 ft | 1 kts | 200° |
| 2026-05-03 21:27 | 41.29305 | 2.08289 | 21 ft | 14 kts | 107° |
| 2026-05-03 21:27 | 41.29221 | 2.08451 | 20 ft | 24 kts | 163° |
| 2026-05-03 21:27 | 41.29064 | 2.08374 | 19 ft | 27 kts | 197° |
| 2026-05-03 21:27 | 41.28848 | 2.08286 | 17 ft | 36 kts | 198° |
| 2026-05-03 21:28 | 41.28668 | 2.08159 | 17 ft | 25 kts | 234° |
| 2026-05-03 21:28 | 41.28573 | 2.07911 | 16 ft | 34 kts | 249° |
| 2026-05-03 21:28 | 41.28485 | 2.07615 | 17 ft | 23 kts | 242° |
| 2026-05-03 21:28 | 41.28370 | 2.07538 | 16 ft | 20 kts | 207° |
| 2026-05-03 21:29 | 41.28275 | 2.07425 | 19 ft | 14 kts | 202° |
| 2026-05-03 21:29 | 41.28245 | 2.07478 | 19 ft | 0 kts | 68° |
| 2026-05-03 21:31 | 41.28300 | 2.07640 | 21 ft | 59 kts | 64° |
| 2026-05-03 21:31 | 41.28598 | 2.08494 | 22 ft | 139 kts | 64° |
| 2026-05-03 21:31 | 41.29040 | 2.09826 | 470 ft | 164 kts | 67° |
| 2026-05-03 21:32 | 41.29191 | 2.11351 | 1339 ft | 172 kts | 96° |
| 2026-05-03 21:32 | 41.29052 | 2.12980 | 2192 ft | 187 kts | 96° |
| 2026-05-03 21:32 | 41.28896 | 2.14770 | 2615 ft | 205 kts | 97° |
| 2026-05-03 21:32 | 41.28655 | 2.16702 | 3104 ft | 222 kts | 111° |
| 2026-05-03 21:33 | 41.27719 | 2.18419 | 3492 ft | 243 kts | 146° |
| 2026-05-03 21:33 | 41.26082 | 2.19111 | 4046 ft | 257 kts | 184° |
| 2026-05-03 21:33 | 41.24412 | 2.18320 | 4896 ft | 261 kts | 219° |
| 2026-05-03 21:33 | 41.23162 | 2.16554 | 5829 ft | 263 kts | 231° |
| 2026-05-03 21:34 | 41.22032 | 2.14632 | 6754 ft | 265 kts | 233° |
| 2026-05-03 21:34 | 41.20928 | 2.12652 | 7628 ft | 268 kts | 234° |
| 2026-05-03 21:34 | 41.19819 | 2.10650 | 8502 ft | 270 kts | 234° |
| 2026-05-03 21:34 | 41.18688 | 2.08632 | 9352 ft | 274 kts | 234° |
| 2026-05-03 21:35 | 41.17536 | 2.06601 | 10164 ft | 278 kts | 234° |
| 2026-05-03 21:35 | 41.16321 | 2.04479 | 10462 ft | 300 kts | 233° |
| 2026-05-03 21:35 | 41.15010 | 2.02203 | 10773 ft | 318 kts | 233° |
| 2026-05-03 21:35 | 41.13653 | 1.99854 | 11428 ft | 323 kts | 233° |
| 2026-05-03 21:36 | 41.12297 | 1.97515 | 12170 ft | 325 kts | 233° |
| 2026-05-03 21:36 | 41.10919 | 1.95142 | 12931 ft | 327 kts | 232° |
| 2026-05-03 21:36 | 41.09520 | 1.92741 | 13695 ft | 329 kts | 232° |
| 2026-05-03 21:36 | 41.08118 | 1.90333 | 14375 ft | 331 kts | 232° |
| 2026-05-03 21:37 | 41.06707 | 1.87913 | 15019 ft | 333 kts | 232° |
| 2026-05-03 21:37 | 41.05284 | 1.85475 | 15646 ft | 336 kts | 232° |
| 2026-05-03 21:37 | 41.03852 | 1.83018 | 16265 ft | 338 kts | 232° |
| 2026-05-03 21:37 | 41.02409 | 1.80539 | 16888 ft | 341 kts | 232° |
| 2026-05-03 21:38 | 41.00953 | 1.78041 | 17516 ft | 344 kts | 232° |
| 2026-05-03 21:38 | 40.99483 | 1.75524 | 18149 ft | 347 kts | 232° |
| 2026-05-03 21:38 | 40.98000 | 1.72990 | 18718 ft | 350 kts | 232° |
| 2026-05-03 21:38 | 40.96502 | 1.70434 | 19279 ft | 353 kts | 232° |
| 2026-05-03 21:39 | 40.94991 | 1.67856 | 19856 ft | 356 kts | 232° |
| 2026-05-03 21:39 | 40.93464 | 1.65252 | 20429 ft | 359 kts | 232° |
| 2026-05-03 21:39 | 40.91928 | 1.62631 | 20988 ft | 362 kts | 232° |
| 2026-05-03 21:39 | 40.90377 | 1.59987 | 21537 ft | 365 kts | 232° |
| 2026-05-03 21:40 | 40.88816 | 1.57328 | 22085 ft | 368 kts | 232° |
| 2026-05-03 21:40 | 40.87239 | 1.54644 | 22618 ft | 371 kts | 232° |
| 2026-05-03 21:40 | 40.85645 | 1.51940 | 23134 ft | 374 kts | 232° |
| 2026-05-03 21:40 | 40.84042 | 1.49217 | 23643 ft | 377 kts | 232° |
| 2026-05-03 21:41 | 40.82426 | 1.46473 | 24074 ft | 380 kts | 232° |
| 2026-05-03 21:41 | 40.80820 | 1.43750 | 24485 ft | 382 kts | 232° |
| 2026-05-03 21:41 | 40.79177 | 1.40975 | 24907 ft | 385 kts | 232° |
| 2026-05-03 21:41 | 40.77525 | 1.38190 | 25320 ft | 387 kts | 232° |
| 2026-05-03 21:42 | 40.75863 | 1.35388 | 25730 ft | 389 kts | 232° |
| 2026-05-03 21:42 | 40.74193 | 1.32567 | 26126 ft | 391 kts | 232° |
| 2026-05-03 21:42 | 40.72513 | 1.29726 | 26519 ft | 394 kts | 232° |
| 2026-05-03 21:42 | 40.70824 | 1.26878 | 26905 ft | 396 kts | 232° |
| 2026-05-03 21:43 | 40.69123 | 1.24016 | 27287 ft | 398 kts | 232° |
| 2026-05-03 21:43 | 40.67411 | 1.21137 | 27671 ft | 400 kts | 232° |
| 2026-05-03 21:43 | 40.65690 | 1.18246 | 28058 ft | 402 kts | 232° |
| 2026-05-03 21:43 | 40.63960 | 1.15343 | 28424 ft | 404 kts | 232° |
| 2026-05-03 21:44 | 40.62217 | 1.12421 | 28811 ft | 406 kts | 232° |
| 2026-05-03 21:44 | 40.60471 | 1.09494 | 28993 ft | 404 kts | 232° |
| 2026-05-03 21:44 | 40.57065 | 1.03792 | 29016 ft | 392 kts | 232° |
| 2026-05-03 21:45 | 40.53651 | 0.98219 | 29017 ft | 391 kts | 230° |
| 2026-05-03 21:45 | 40.49988 | 0.92948 | 29016 ft | 390 kts | 227° |
| 2026-05-03 21:46 | 40.46243 | 0.87781 | 29016 ft | 390 kts | 227° |
| 2026-05-03 21:46 | 40.42533 | 0.82591 | 29022 ft | 390 kts | 228° |
| 2026-05-03 21:47 | 40.38864 | 0.77366 | 29023 ft | 389 kts | 229° |
| 2026-05-03 21:47 | 40.35200 | 0.72147 | 29024 ft | 389 kts | 229° |
| 2026-05-03 21:48 | 40.31561 | 0.66976 | 29029 ft | 388 kts | 229° |
| 2026-05-03 21:48 | 40.27898 | 0.61789 | 29029 ft | 387 kts | 229° |
| 2026-05-03 21:49 | 40.24242 | 0.56623 | 29028 ft | 386 kts | 229° |
| 2026-05-03 21:49 | 40.20582 | 0.51474 | 29033 ft | 386 kts | 229° |
| 2026-05-03 21:50 | 40.16930 | 0.46349 | 29040 ft | 385 kts | 229° |
| 2026-05-03 21:50 | 40.13285 | 0.41226 | 29042 ft | 384 kts | 229° |
| 2026-05-03 21:51 | 40.09640 | 0.36113 | 29043 ft | 384 kts | 229° |
| 2026-05-03 21:51 | 40.05995 | 0.31025 | 29041 ft | 384 kts | 229° |
| 2026-05-03 21:52 | 40.02342 | 0.25937 | 29039 ft | 384 kts | 229° |
| 2026-05-03 21:52 | 39.98697 | 0.20853 | 29038 ft | 384 kts | 229° |
| 2026-05-03 21:53 | 39.95061 | 0.15765 | 29035 ft | 384 kts | 229° |
| 2026-05-03 21:53 | 39.91419 | 0.10686 | 29032 ft | 383 kts | 229° |
| 2026-05-03 21:54 | 39.87774 | 0.05617 | 29032 ft | 383 kts | 229° |
| 2026-05-03 21:54 | 39.84123 | 0.00557 | 29030 ft | 383 kts | 229° |
| 2026-05-03 21:55 | 39.80477 | -0.04492 | 29030 ft | 383 kts | 229° |
| 2026-05-03 21:55 | 39.76827 | -0.09530 | 29034 ft | 383 kts | 229° |
| 2026-05-03 21:56 | 39.73202 | -0.14526 | 29034 ft | 382 kts | 229° |
| 2026-05-03 21:56 | 39.69557 | -0.19552 | 29035 ft | 382 kts | 229° |
| 2026-05-03 21:57 | 39.65912 | -0.24569 | 29038 ft | 382 kts | 229° |
| 2026-05-03 21:57 | 39.62263 | -0.29576 | 29039 ft | 381 kts | 229° |
| 2026-05-03 21:58 | 39.58618 | -0.34570 | 29041 ft | 381 kts | 229° |
| 2026-05-03 21:58 | 39.54975 | -0.39555 | 29044 ft | 381 kts | 229° |
| 2026-05-03 21:59 | 39.51331 | -0.44530 | 29046 ft | 380 kts | 229° |
| 2026-05-03 21:59 | 39.49361 | -0.46810 | 28899 ft | 379 kts | 219° |
| 2026-05-03 21:59 | 39.47081 | -0.48517 | 28632 ft | 379 kts | 209° |
| 2026-05-03 22:00 | 39.44605 | -0.49714 | 28355 ft | 382 kts | 201° |
| 2026-05-03 22:00 | 39.42034 | -0.50593 | 28089 ft | 381 kts | 200° |
| 2026-05-03 22:00 | 39.39487 | -0.51483 | 27815 ft | 379 kts | 201° |
| 2026-05-03 22:00 | 39.36959 | -0.52394 | 27468 ft | 374 kts | 201° |
| 2026-05-03 22:01 | 39.34459 | -0.53304 | 26966 ft | 372 kts | 201° |
| 2026-05-03 22:01 | 39.31976 | -0.54204 | 26482 ft | 370 kts | 201° |
| 2026-05-03 22:01 | 39.29498 | -0.55097 | 26006 ft | 369 kts | 200° |
| 2026-05-03 22:01 | 39.27028 | -0.55984 | 25535 ft | 368 kts | 200° |
| 2026-05-03 22:02 | 39.24568 | -0.56865 | 25075 ft | 367 kts | 200° |
| 2026-05-03 22:02 | 39.22113 | -0.57740 | 24618 ft | 366 kts | 200° |
| 2026-05-03 22:02 | 39.19694 | -0.58601 | 24169 ft | 365 kts | 200° |
| 2026-05-03 22:02 | 39.17246 | -0.59472 | 23709 ft | 365 kts | 199° |
| 2026-05-03 22:03 | 39.14794 | -0.60339 | 23178 ft | 365 kts | 199° |
| 2026-05-03 22:03 | 39.12351 | -0.61199 | 22702 ft | 363 kts | 199° |
| 2026-05-03 22:03 | 39.09919 | -0.62058 | 22212 ft | 362 kts | 199° |
| 2026-05-03 22:03 | 39.07499 | -0.62912 | 21713 ft | 360 kts | 199° |
| 2026-05-03 22:04 | 39.05091 | -0.63760 | 21211 ft | 359 kts | 199° |
| 2026-05-03 22:04 | 39.02690 | -0.64608 | 20704 ft | 357 kts | 199° |
| 2026-05-03 22:04 | 39.00293 | -0.65456 | 20182 ft | 357 kts | 199° |
| 2026-05-03 22:04 | 38.97902 | -0.66300 | 19651 ft | 356 kts | 199° |
| 2026-05-03 22:05 | 38.95519 | -0.67140 | 19131 ft | 355 kts | 199° |
| 2026-05-03 22:05 | 38.93144 | -0.67975 | 18603 ft | 353 kts | 199° |
| 2026-05-03 22:05 | 38.90777 | -0.68806 | 18126 ft | 350 kts | 199° |
| 2026-05-03 22:05 | 38.88430 | -0.69627 | 17525 ft | 349 kts | 199° |
| 2026-05-03 22:06 | 38.86105 | -0.70440 | 16993 ft | 346 kts | 199° |
| 2026-05-03 22:06 | 38.83795 | -0.71249 | 16508 ft | 342 kts | 199° |
| 2026-05-03 22:06 | 38.81502 | -0.72051 | 15944 ft | 341 kts | 199° |
| 2026-05-03 22:06 | 38.79224 | -0.72849 | 15433 ft | 338 kts | 199° |
| 2026-05-03 22:07 | 38.76969 | -0.73643 | 14930 ft | 335 kts | 199° |
| 2026-05-03 22:07 | 38.74732 | -0.74430 | 14426 ft | 332 kts | 199° |
| 2026-05-03 22:07 | 38.72509 | -0.75213 | 13934 ft | 330 kts | 199° |
| 2026-05-03 22:07 | 38.70298 | -0.75989 | 13397 ft | 328 kts | 199° |
| 2026-05-03 22:08 | 38.68106 | -0.76756 | 12913 ft | 325 kts | 199° |
| 2026-05-03 22:08 | 38.65934 | -0.77514 | 12435 ft | 322 kts | 199° |
| 2026-05-03 22:08 | 38.63784 | -0.78261 | 11962 ft | 319 kts | 198° |
| 2026-05-03 22:08 | 38.61664 | -0.78997 | 11731 ft | 309 kts | 198° |
| 2026-05-03 22:09 | 38.59628 | -0.79701 | 11602 ft | 298 kts | 198° |
| 2026-05-03 22:09 | 38.57685 | -0.80375 | 11480 ft | 287 kts | 198° |
| 2026-05-03 22:09 | 38.55790 | -0.81033 | 11355 ft | 278 kts | 199° |
| 2026-05-03 22:10 | 38.52811 | -0.83495 | 11111 ft | 253 kts | 232° |
| 2026-05-03 22:10 | 38.51701 | -0.85187 | 10978 ft | 245 kts | 229° |
| 2026-05-03 22:10 | 38.50553 | -0.86759 | 10673 ft | 240 kts | 226° |
| 2026-05-03 22:10 | 38.49351 | -0.88239 | 10167 ft | 240 kts | 223° |
| 2026-05-03 22:11 | 38.48094 | -0.89639 | 9630 ft | 240 kts | 220° |
| 2026-05-03 22:11 | 38.46786 | -0.90946 | 9206 ft | 237 kts | 218° |
| 2026-05-03 22:11 | 38.45443 | -0.92158 | 8855 ft | 237 kts | 216° |
| 2026-05-03 22:11 | 38.44049 | -0.93298 | 8514 ft | 239 kts | 213° |
| 2026-05-03 22:12 | 38.42601 | -0.94352 | 8177 ft | 241 kts | 210° |
| 2026-05-03 22:12 | 38.41099 | -0.95313 | 7833 ft | 242 kts | 207° |
| 2026-05-03 22:12 | 38.39539 | -0.96155 | 7403 ft | 248 kts | 199° |
| 2026-05-03 22:12 | 38.38967 | -0.96331 | 7184 ft | 254 kts | 192° |